Ora Direzione Vento Velocita' Vento Media Vento Raffica Max. Temperatura Wind Chill Pioggia Pressione
22:42:56.00 °(N)4.16 Kts3.77 Kts14.17 Kts6.0 °C7.86 °C0.0 mm1003.0 Hpa
22:22:15.00 °(N)5.2 Kts2.9 Kts14.17 Kts6.0 °C7.95 °C0.0 mm1003.9 Hpa
22:01:31.00 °(N)3.77 Kts4.42 Kts14.17 Kts6.1 °C7.81 °C0.0 mm1003.5 Hpa
21:42:54.00 °(N)3.77 Kts4.81 Kts14.17 Kts6.1 °C7.81 °C0.0 mm1003.5 Hpa
21:22:11.00 °(N)7.15 Kts5.89 Kts14.17 Kts6.0 °C8.43 °C0.0 mm1001.8 Hpa
21:01:31.00 °(N)5.72 Kts6.32 Kts14.17 Kts6.0 °C8.21 °C0.0 mm1001.0 Hpa
20:42:53.00 °(N)5.46 Kts7.41 Kts14.17 Kts5.8 °C7.71 °C0.0 mm1001.5 Hpa
20:22:11.00 °(N)2.21 Kts4.03 Kts14.17 Kts5.6 °C6.97 °C0.0 mm1003.1 Hpa
20:01:29.00 °(N)3.64 Kts8.19 Kts14.17 Kts5.6 °C7.09 °C0.0 mm1003.1 Hpa
19:42:52.00 °(N)5.07 Kts6.45 Kts14.17 Kts5.6 °C7.29 °C0.0 mm1002.3 Hpa
19:22:10.00 °(N)2.99 Kts3.94 Kts14.17 Kts5.8 °C7.3 °C0.0 mm1004.0 Hpa
19:01:29.053 °(NE)3.25 Kts2.64 Kts14.17 Kts6.0 °C7.62 °C0.0 mm1002.3 Hpa
18:42:52.00 °(N)4.42 Kts4.33 Kts14.17 Kts6.0 °C7.82 °C0.0 mm1002.3 Hpa
18:22:08.00 °(N)2.86 Kts2.73 Kts14.17 Kts6.0 °C7.63 °C0.0 mm1004.0 Hpa
18:01:27.00 °(N)4.94 Kts5.98 Kts14.17 Kts6.1 °C8.13 °C0.0 mm1003.6 Hpa
17:42:46.00 °(N)5.33 Kts5.5 Kts14.17 Kts6.3 °C8.57 °C0.0 mm1002.0 Hpa
17:21:59.00 °(N)8.45 Kts3.98 Kts14.17 Kts6.4 °C9.45 °C0.0 mm1003.6 Hpa
17:01:13.00 °(N)5.72 Kts4.55 Kts14.17 Kts6.5 °C9.16 °C0.0 mm1001.6 Hpa
16:42:34.00 °(N)5.98 Kts2.42 Kts14.17 Kts6.8 °C9.69 °C0.0 mm1002.1 Hpa
16:21:44.00 °(N)3.38 Kts2.94 Kts14.17 Kts6.9 °C9.07 °C0.0 mm1002.1 Hpa